Decoded Metar for UKLL (LVOV in UKRAINE) (IATA:LWO) | Meteo·Mobile Aviation Weather
aviador You're here:

UKLL Decoded Metar

LVOV in UKRAINE
Report Time2019-10-21 07:30:00
UTC Time2019-10-21 07:48:44
Flight Rules vfr VFR
Wind200° at 6 kt
W.Decomp.*RWY 13: 2.3 kt HW 5.5 kt RCW
Visibility9999 m
Phenomena:N/A
Clouds:N/A
Expected CloudBase > 2,400 ft AGL from Temp-Dew spread
CeilingNone
Temp16°C (ISA +3)
Dew Point10°C (68% RH)
AAT13.9°C
QNH1020 hPa
Density Alt1,368 ft
Elevation1,066 ft
Report Wrong Elevation
Raw Report
METAR UKLL 210730Z 20003MPS CAVOK 16/10 Q1020 R13/D NOSIG=

Extra information for UKLL:More info

Metar Taf Metar & Taf Last 4 Metars F.Rules Stats Wind Profile Meteogram Temp Stats Airport Information Weather charts Add Link Nearby VenuesMetar ALERT Operation Metar Decoded Social comments